Time;durP1;ratioP1;P1;durP2;ratioP2;P2;SDS_P1;SDS_P2;PMS_P1;PMS_P2;Temp;Humidity;BMP_temperature;BMP_pressure;BME280_temperature;BME280_humidity;BME280_pressure;Samples;Min_cycle;Max_cycle;Signal;HPM_P1;HPM_P2
2021/09/25 00:01:17;;;;;;;;;;;;;;;15.38;89.02;100319.73;5260951;56;20139;-78
2021/09/25 00:06:22;;;;;;;;;;;;;;;15.37;88.88;100310.56;5260941;56;20151;-77
2021/09/25 00:11:29;;;;;;;;;;;;;;;15.37;88.75;100314.06;5292102;56;20816;-80
2021/09/25 00:16:35;;;;;;;;;;;;;;;15.38;89.14;100306.91;5318882;56;20189;-80
2021/09/25 00:21:40;;;;;;;;;;;;;;;15.39;89.00;100301.92;5318851;56;20834;-78
2021/09/25 00:26:45;;;;;;;;;;;;;;;15.39;89.10;100309.42;5318619;56;20920;-78
2021/09/25 00:31:51;;;;;;;;;;;;;;;15.39;88.96;100306.75;5319148;56;20142;-78
2021/09/25 00:36:55;;;;;;;;;;;;;;;15.40;89.34;100303.59;5318991;56;20139;-80
2021/09/25 00:42:00;;;;;;;;;;;;;;;15.38;89.49;100304.24;5319093;56;20155;-77
2021/09/25 00:47:05;;;;;;;;;;;;;;;15.39;89.63;100298.77;5319054;56;20149;-80
2021/09/25 00:52:10;;;;;;;;;;;;;;;15.42;89.09;100292.29;5319013;56;20147;-80
2021/09/25 00:57:16;;;;;;;;;;;;;;;15.45;88.90;100295.95;5309533;56;20194;-82
2021/09/25 01:02:21;;;;;;;;;;;;;;;15.47;89.26;100293.97;5306078;56;20150;-77
2021/09/25 01:07:26;;;;;;;;;;;;;;;15.45;89.27;100295.45;5306038;56;20138;-80
2021/09/25 01:12:31;;;;;;;;;;;;;;;15.48;89.04;100299.15;5254965;56;20147;-80
2021/09/25 01:17:36;;;;;;;;;;;;;;;15.48;89.48;100299.64;5238224;56;20169;-78
2021/09/25 01:22:41;;;;;;;;;;;;;;;15.48;89.93;100300.97;5238320;56;20557;-79
2021/09/25 01:27:47;;;;;;;;;;;;;;;15.48;89.68;100292.48;5238348;56;20191;-77
2021/09/25 01:32:52;;;;;;;;;;;;;;;15.49;90.30;100293.33;5238212;56;20146;-77
2021/09/25 01:37:58;;;;;;;;;;;;;;;15.52;90.32;100296.17;5238292;56;20201;-78
2021/09/25 01:43:02;;;;;;;;;;;;;;;15.53;89.99;100280.03;5238254;56;20172;-79
2021/09/25 01:48:07;;;;;;;;;;;;;;;15.52;90.70;100283.69;5238311;56;20142;-79
2021/09/25 01:53:12;;;;;;;;;;;;;;;15.54;90.74;100284.37;5238353;56;20149;-77
2021/09/25 01:58:17;;;;;;;;;;;;;;;15.54;90.36;100288.37;5191205;56;20189;-80
2021/09/25 02:03:21;;;;;;;;;;;;;;;15.57;90.18;100290.77;5180276;57;20147;-80
2021/09/25 02:08:26;;;;;;;;;;;;;;;15.57;91.10;100281.92;5180789;57;20154;-81
2021/09/25 02:13:32;;;;;;;;;;;;;;;15.57;90.95;100277.44;5224144;56;20139;-79
2021/09/25 02:18:37;;;;;;;;;;;;;;;15.59;91.14;100282.08;5225649;56;20228;-79
2021/09/25 02:23:43;;;;;;;;;;;;;;;15.61;90.92;100284.59;5225679;56;20143;-79
2021/09/25 02:28:48;;;;;;;;;;;;;;;15.63;91.29;100296.78;5225632;56;20143;-80
2021/09/25 02:33:52;;;;;;;;;;;;;;;15.64;91.49;100300.28;5225536;57;20376;-78
2021/09/25 02:38:58;;;;;;;;;;;;;;;15.67;91.41;100302.15;5225517;56;20187;-79
2021/09/25 02:44:03;;;;;;;;;;;;;;;15.70;91.37;100300.51;5225473;56;20622;-77
2021/09/25 02:49:08;;;;;;;;;;;;;;;15.71;91.49;100300.84;5225584;56;20203;-79
2021/09/25 02:54:12;;;;;;;;;;;;;;;15.73;91.50;100308.70;5225348;56;20377;-80
2021/09/25 02:59:18;;;;;;;;;;;;;;;15.75;91.68;100304.02;5256447;56;20182;-81
2021/09/25 03:04:23;;;;;;;;;;;;;;;15.77;91.52;100310.03;5259943;56;20479;-80
2021/09/25 03:09:28;;;;;;;;;;;;;;;15.79;91.79;100314.71;5251099;56;20141;-79
2021/09/25 03:14:33;;;;;;;;;;;;;;;15.80;91.86;100309.72;5199330;57;20192;-80
2021/09/25 03:19:37;;;;;;;;;;;;;;;15.82;91.81;100315.23;5199205;57;20144;-81
2021/09/25 03:24:44;;;;;;;;;;;;;;;15.83;91.38;100318.25;5199100;57;20180;-78
2021/09/25 03:29:49;;;;;;;;;;;;;;;15.85;91.67;100321.26;5199129;57;20161;-78
2021/09/25 03:34:53;;;;;;;;;;;;;;;15.86;91.40;100321.60;5199091;57;20404;-78
2021/09/25 03:39:59;;;;;;;;;;;;;;;15.85;91.36;100323.92;5198960;57;20180;-79
2021/09/25 03:45:06;;;;;;;;;;;;;;;15.85;91.84;100322.59;5199160;57;20184;-77
2021/09/25 03:50:11;;;;;;;;;;;;;;;15.82;91.69;100325.07;5198780;57;20156;-79
2021/09/25 03:55:16;;;;;;;;;;;;;;;15.82;91.78;100323.73;5199043;57;20136;-77
2021/09/25 04:00:21;;;;;;;;;;;;;;;15.79;91.77;100318.22;5155799;57;20176;-80
2021/09/25 04:05:26;;;;;;;;;;;;;;;15.77;92.33;100328.20;5121367;57;20141;-78
2021/09/25 04:10:31;;;;;;;;;;;;;;;15.76;92.52;100323.86;5156212;57;20154;-78
2021/09/25 04:15:37;;;;;;;;;;;;;;;15.75;92.89;100324.84;5157508;57;20178;-79
2021/09/25 04:20:41;;;;;;;;;;;;;;;15.75;92.53;100326.67;5157424;57;20196;-78
2021/09/25 04:25:48;;;;;;;;;;;;;;;15.73;93.10;100330.86;5157495;57;20166;-78
2021/09/25 04:30:52;;;;;;;;;;;;;;;15.72;93.19;100334.52;5157314;57;20154;-80
2021/09/25 04:35:57;;;;;;;;;;;;;;;15.67;93.60;100335.47;5157391;57;20372;-80
2021/09/25 04:41:02;;;;;;;;;;;;;;;15.65;94.28;100339.28;5157498;57;20150;-80
2021/09/25 04:46:07;;;;;;;;;;;;;;;15.64;94.20;100333.11;5157447;57;20372;-80
2021/09/25 04:51:12;;;;;;;;;;;;;;;15.66;94.71;100347.62;5157477;57;20175;-79
2021/09/25 04:56:17;;;;;;;;;;;;;;;15.69;94.21;100348.66;5158711;56;20147;-81
2021/09/25 05:01:23;;;;;;;;;;;;;;;15.69;94.54;100349.98;5157303;57;20494;-80
2021/09/25 05:06:28;;;;;;;;;;;;;;;15.70;94.38;100357.83;5157384;57;20148;-80
2021/09/25 05:11:34;;;;;;;;;;;;;;;15.73;94.41;100361.52;5195663;57;20818;-80
2021/09/25 05:16:39;;;;;;;;;;;;;;;15.75;94.30;100359.52;5225494;56;20155;-78
2021/09/25 05:21:44;;;;;;;;;;;;;;;15.71;94.70;100360.84;5225953;56;20198;-81
2021/09/25 05:26:49;;;;;;;;;;;;;;;15.78;94.49;100366.37;5225819;56;20794;-78
2021/09/25 05:31:58;;;;;;;;;;;;;;;15.80;94.74;100364.39;5225706;56;20143;-79
2021/09/25 05:37:00;;;;;;;;;;;;;;;15.83;94.68;100368.92;5225698;56;20155;-79
2021/09/25 05:42:05;;;;;;;;;;;;;;;15.88;94.69;100368.45;5225846;56;20559;-77
2021/09/25 05:47:12;;;;;;;;;;;;;;;15.90;94.88;100373.11;5225790;56;20151;-78
2021/09/25 05:52:17;;;;;;;;;;;;;;;15.89;95.57;100383.44;5226129;56;20835;-79
2021/09/25 05:57:22;;;;;;;;;;;;;;;15.82;95.83;100382.41;5225980;56;20486;-81
2021/09/25 06:02:28;;;;;;;;;;;;;;;15.69;98.79;100382.82;5225688;56;20147;-78
2021/09/25 06:07:32;;;;;;;;;;;;;;;15.59;98.14;100386.05;5225685;56;20151;-79
2021/09/25 06:12:37;;;;;;;;;;;;;;;15.56;98.77;100393.55;5171162;56;20548;-81
2021/09/25 06:17:43;;;;;;;;;;;;;;;15.53;98.39;100409.31;5155533;57;20189;-77
2021/09/25 06:22:48;;;;;;;;;;;;;;;15.48;99.91;100405.77;5155569;57;20157;-79
2021/09/25 06:27:53;;;;;;;;;;;;;;;15.49;100.00;100409.27;5155614;57;20148;-78
2021/09/25 06:32:59;;;;;;;;;;;;;;;15.47;100.00;100413.91;5155467;57;20535;-79
2021/09/25 06:38:05;;;;;;;;;;;;;;;15.44;100.00;100412.38;5155408;57;20153;-81
2021/09/25 06:43:09;;;;;;;;;;;;;;;15.47;100.00;100414.75;5213875;56;20147;-87
2021/09/25 06:48:14;;;;;;;;;;;;;;;15.48;100.00;100417.76;5225847;56;20156;-87
2021/09/25 06:53:19;;;;;;;;;;;;;;;15.48;100.00;100415.59;5225657;56;20155;-88
2021/09/25 06:58:24;;;;;;;;;;;;;;;15.51;100.00;100416.62;5225633;56;20131;-86
2021/09/25 07:03:29;;;;;;;;;;;;;;;15.49;100.00;100420.77;5225556;56;20156;-87
2021/09/25 07:08:34;;;;;;;;;;;;;;;15.52;100.00;100425.45;5225486;56;20140;-87
2021/09/25 07:13:42;;;;;;;;;;;;;;;15.56;100.00;100430.86;5180560;57;20422;-87
2021/09/25 07:18:46;;;;;;;;;;;;;;;15.58;100.00;100432.89;5180104;57;20192;-88
2021/09/25 07:23:51;;;;;;;;;;;;;;;15.62;100.00;100439.56;5179833;57;20139;-90
2021/09/25 07:28:56;;;;;;;;;;;;;;;15.65;100.00;100452.09;5180032;57;20189;-83
2021/09/25 07:34:01;;;;;;;;;;;;;;;15.69;100.00;100456.64;5179971;57;20186;-85
2021/09/25 07:39:05;;;;;;;;;;;;;;;15.71;100.00;100458.16;5179954;57;20708;-82
2021/09/25 07:44:10;;;;;;;;;;;;;;;15.74;100.00;100452.50;5217956;56;20147;-83
2021/09/25 07:49:15;;;;;;;;;;;;;;;15.80;100.00;100464.39;5217207;56;20193;-84
2021/09/25 07:54:20;;;;;;;;;;;;;;;15.86;100.00;100462.95;5216998;56;20403;-83
2021/09/25 07:59:25;;;;;;;;;;;;;;;15.92;100.00;100465.81;5228750;56;20194;-84
2021/09/25 08:04:29;;;;;;;;;;;;;;;16.01;100.00;100466.73;5261562;56;20174;-84
2021/09/25 08:09:34;;;;;;;;;;;;;;;16.15;100.00;100476.35;5251877;56;20182;-84
2021/09/25 08:14:39;;;;;;;;;;;;;;;16.29;100.00;100477.61;5205190;57;20162;-84
2021/09/25 08:19:43;;;;;;;;;;;;;;;16.42;100.00;100488.70;5204314;57;20438;-84
2021/09/25 08:24:48;;;;;;;;;;;;;;;16.57;100.00;100486.28;5204985;57;20185;-85
2021/09/25 08:29:53;;;;;;;;;;;;;;;16.66;100.00;100488.02;5204519;57;20217;-84
2021/09/25 08:34:58;;;;;;;;;;;;;;;16.84;100.00;100488.78;5203720;57;20182;-85
2021/09/25 08:40:06;;;;;;;;;;;;;;;17.00;98.63;100486.69;5203502;57;20193;-85
2021/09/25 08:45:11;;;;;;;;;;;;;;;17.10;97.79;100486.57;5205044;57;20257;-85
2021/09/25 08:50:17;;;;;;;;;;;;;;;17.12;97.37;100497.41;5205169;57;20193;-84
2021/09/25 08:55:23;;;;;;;;;;;;;;;17.12;96.84;100504.09;5285493;55;20542;-84
2021/09/25 09:00:38;;;;;;;;;;;;;;;17.15;96.94;100509.62;5323942;55;20432;-84
2021/09/25 09:05:43;;;;;;;;;;;;;;;17.18;96.19;100515.48;5307991;55;20183;-85
2021/09/25 09:10:47;;;;;;;;;;;;;;;17.21;95.49;100512.99;5270457;56;20167;-85
2021/09/25 09:15:53;;;;;;;;;;;;;;;17.19;94.73;100515.83;5217254;56;20186;-85
2021/09/25 09:21:10;;;;;;;;;;;;;;;17.21;94.53;100521.02;5217238;57;20186;-84
2021/09/25 09:26:18;;;;;;;;;;;;;;;17.21;94.16;100531.70;5217283;56;20179;-85
2021/09/25 09:31:24;;;;;;;;;;;;;;;17.24;94.79;100535.39;5216890;57;20199;-84
2021/09/25 09:36:31;;;;;;;;;;;;;;;17.27;94.16;100537.72;5218087;56;20262;-85
2021/09/25 09:41:47;;;;;;;;;;;;;;;17.23;93.74;100543.08;5217641;56;20206;-85
2021/09/25 09:47:01;;;;;;;;;;;;;;;17.20;93.85;100541.55;5217314;56;20167;-84
2021/09/25 09:52:11;;;;;;;;;;;;;;;17.22;94.03;100552.93;5216930;56;20495;-85
2021/09/25 09:57:18;;;;;;;;;;;;;;;17.19;93.38;100553.24;5217218;56;20179;-85
2021/09/25 10:02:22;;;;;;;;;;;;;;;17.16;93.51;100561.58;5243132;56;20227;-84
2021/09/25 10:07:27;;;;;;;;;;;;;;;17.13;93.81;100571.25;5286375;55;20174;-84
2021/09/25 10:12:32;;;;;;;;;;;;;;;17.08;94.28;100570.06;5268742;55;20216;-84
2021/09/25 10:17:37;;;;;;;;;;;;;;;17.07;94.74;100577.74;5260995;56;20385;-84
2021/09/25 10:22:45;;;;;;;;;;;;;;;17.12;95.03;100584.77;5275340;55;20179;-85
2021/09/25 10:27:52;;;;;;;;;;;;;;;17.21;95.37;100587.34;5332847;55;20272;-85
2021/09/25 10:32:57;;;;;;;;;;;;;;;17.30;95.24;100593.55;5332406;55;20198;-85
2021/09/25 10:38:03;;;;;;;;;;;;;;;17.41;94.81;100595.11;5332437;55;20179;-84
2021/09/25 10:43:27;;;;;;;;;;;;;;;17.49;94.38;100606.66;5332962;55;20234;-85
2021/09/25 10:48:30;;;;;;;;;;;;;;;17.53;94.27;100601.84;5332170;54;20516;-85
2021/09/25 10:53:40;;;;;;;;;;;;;;;17.59;94.17;100593.14;5332509;55;20182;-85
2021/09/25 10:58:57;;;;;;;;;;;;;;;17.65;93.90;100590.37;5332508;55;20183;-84
2021/09/25 11:04:19;;;;;;;;;;;;;;;17.73;93.42;100597.06;5313712;54;20526;-86
2021/09/25 11:09:29;;;;;;;;;;;;;;;17.87;92.74;100595.92;5295242;56;20182;-85
2021/09/25 11:14:43;;;;;;;;;;;;;;;17.99;91.90;100597.81;5219096;56;20180;-85
2021/09/25 11:19:58;;;;;;;;;;;;;;;18.10;91.54;100606.02;5217091;56;20182;-85
2021/09/25 11:25:13;;;;;;;;;;;;;;;18.22;91.27;100609.53;5217913;56;20211;-85
2021/09/25 11:30:23;;;;;;;;;;;;;;;18.38;89.88;100614.06;5217672;56;20171;-86
2021/09/25 11:35:33;;;;;;;;;;;;;;;18.63;90.11;100612.77;5217207;56;20522;-85
2021/09/25 11:40:41;;;;;;;;;;;;;;;18.74;86.81;100607.89;5216821;56;20195;-85
2021/09/25 11:45:48;;;;;;;;;;;;;;;18.69;85.75;100615.59;5223361;56;20186;-85
2021/09/25 11:50:55;;;;;;;;;;;;;;;18.69;85.82;100609.39;5233721;56;20186;-85
2021/09/25 11:56:01;;;;;;;;;;;;;;;18.79;85.76;100616.77;5230370;56;20439;-85
2021/09/25 12:01:05;;;;;;;;;;;;;;;18.83;86.13;100618.08;5216638;56;20171;-86
2021/09/25 12:06:10;;;;;;;;;;;;;;;18.84;85.78;100622.44;5217078;57;20198;-85
2021/09/25 12:11:15;;;;;;;;;;;;;;;18.84;84.41;100615.73;5181783;56;20184;-86
2021/09/25 12:16:21;;;;;;;;;;;;;;;18.90;84.92;100609.20;5147352;57;20169;-86
2021/09/25 12:21:27;;;;;;;;;;;;;;;19.18;85.89;100606.95;5146686;57;20586;-86
2021/09/25 12:26:34;;;;;;;;;;;;;;;19.41;83.54;100614.23;5147657;57;20192;-86
2021/09/25 12:31:39;;;;;;;;;;;;;;;19.64;83.33;100619.20;5147823;57;20193;-84
2021/09/25 12:36:46;;;;;;;;;;;;;;;19.87;82.21;100617.89;5147214;57;20176;-84
2021/09/25 12:41:53;;;;;;;;;;;;;;;19.88;80.90;100612.86;5147273;57;20259;-84
2021/09/25 12:46:59;;;;;;;;;;;;;;;19.95;80.51;100617.86;5147267;57;20192;-84
2021/09/25 12:52:10;;;;;;;;;;;;;;;19.96;79.29;100622.22;5147467;57;20200;-84
2021/09/25 12:57:18;;;;;;;;;;;;;;;19.87;79.51;100627.28;5146882;57;20260;-84
2021/09/25 13:02:22;;;;;;;;;;;;;;;19.81;79.39;100630.70;5152197;57;20488;-85
2021/09/25 13:07:33;;;;;;;;;;;;;;;19.72;79.65;100631.22;5181867;57;20180;-84
2021/09/25 13:12:43;;;;;;;;;;;;;;;19.60;79.90;100633.97;5185063;57;21104;-86
2021/09/25 13:17:52;;;;;;;;;;;;;;;19.49;80.03;100633.86;5186799;57;20183;-85
2021/09/25 13:22:59;;;;;;;;;;;;;;;19.41;80.82;100635.18;5186526;57;20172;-86
2021/09/25 13:28:06;;;;;;;;;;;;;;;19.47;81.32;100634.50;5184955;57;20188;-86
2021/09/25 13:33:11;;;;;;;;;;;;;;;19.51;80.90;100637.20;5185306;57;20237;-86
2021/09/25 13:38:16;;;;;;;;;;;;;;;19.57;81.08;100640.52;5157237;57;20484;-86
2021/09/25 13:43:20;;;;;;;;;;;;;;;19.76;81.15;100639.27;5118705;57;20186;-86
2021/09/25 13:48:25;;;;;;;;;;;;;;;19.82;80.87;100629.18;5101893;57;21112;-80
2021/09/25 13:53:30;;;;;;;;;;;;;;;19.97;79.10;100615.33;5100797;57;20181;-80
2021/09/25 13:58:36;;;;;;;;;;;;;;;19.90;78.52;100638.52;5100989;57;20190;-80
2021/09/25 14:03:41;;;;;;;;;;;;;;;19.87;79.56;100646.08;5102629;57;20549;-79
2021/09/25 14:08:46;;;;;;;;;;;;;;;19.86;78.69;100653.83;5110239;57;20189;-80
2021/09/25 14:13:52;;;;;;;;;;;;;;;19.74;78.46;100658.73;5193113;57;20538;-79
2021/09/25 14:18:58;;;;;;;;;;;;;;;19.73;78.95;100657.55;5192760;57;20202;-79
2021/09/25 14:24:10;;;;;;;;;;;;;;;19.79;79.75;100655.02;5192935;57;20198;-77
2021/09/25 14:29:16;;;;;;;;;;;;;;;19.89;79.24;100653.45;5192881;57;20206;-80
2021/09/25 14:34:21;;;;;;;;;;;;;;;19.97;79.74;100660.97;5192964;57;20202;-79
2021/09/25 14:39:26;;;;;;;;;;;;;;;19.89;79.53;100678.45;5192621;57;20621;-78
2021/09/25 14:44:32;;;;;;;;;;;;;;;19.75;80.53;100675.16;5192734;57;20227;-79
2021/09/25 14:49:37;;;;;;;;;;;;;;;19.60;81.31;100674.22;5192761;57;20195;-82
2021/09/25 14:54:42;;;;;;;;;;;;;;;19.43;81.64;100688.16;5192731;57;20202;-81
2021/09/25 14:59:47;;;;;;;;;;;;;;;19.37;82.40;100685.34;5192755;57;20207;-81
2021/09/25 15:04:52;;;;;;;;;;;;;;;19.30;82.94;100688.70;5176548;55;20217;-80
2021/09/25 15:09:57;;;;;;;;;;;;;;;19.24;83.16;100692.08;5147731;57;20177;-80
2021/09/25 15:15:02;;;;;;;;;;;;;;;19.22;83.42;100695.44;5146021;57;20543;-79
2021/09/25 15:20:08;;;;;;;;;;;;;;;19.20;83.99;100709.52;5145944;57;20188;-81
2021/09/25 15:25:13;;;;;;;;;;;;;;;19.14;84.12;100703.48;5146015;57;20188;-80
2021/09/25 15:30:18;;;;;;;;;;;;;;;19.05;84.90;100704.50;5145997;57;20440;-78
2021/09/25 15:35:23;;;;;;;;;;;;;;;19.03;85.09;100711.87;5146077;57;20433;-78
2021/09/25 15:40:28;;;;;;;;;;;;;;;19.15;85.52;100723.08;5145862;57;20202;-78
2021/09/25 15:45:33;;;;;;;;;;;;;;;19.26;84.95;100725.41;5145927;57;20180;-76
2021/09/25 15:50:38;;;;;;;;;;;;;;;19.25;84.25;100729.93;5146039;57;20508;-79
2021/09/25 15:55:42;;;;;;;;;;;;;;;19.11;84.26;100732.46;5146303;57;20192;-80
2021/09/25 16:00:47;;;;;;;;;;;;;;;18.98;84.39;100732.47;5145735;57;20356;-77
2021/09/25 16:05:52;;;;;;;;;;;;;;;18.87;84.73;100746.22;5242427;56;20224;-81
2021/09/25 16:10:57;;;;;;;;;;;;;;;18.82;84.89;100747.22;5308801;56;20626;-81
2021/09/25 16:16:02;;;;;;;;;;;;;;;18.74;85.10;100750.41;5308675;56;20185;-83
2021/09/25 16:21:08;;;;;;;;;;;;;;;18.67;85.54;100747.53;5308721;56;20185;-81
2021/09/25 16:26:13;;;;;;;;;;;;;;;18.63;85.91;100750.23;5308804;56;20592;-79
2021/09/25 16:31:18;;;;;;;;;;;;;;;18.56;86.21;100753.19;5308772;56;20186;-78
2021/09/25 16:36:23;;;;;;;;;;;;;;;18.53;86.42;100757.03;5308824;56;20237;-75
2021/09/25 16:41:28;;;;;;;;;;;;;;;18.52;86.79;100754.02;5308441;56;20170;-75
2021/09/25 16:46:37;;;;;;;;;;;;;;;18.49;86.89;100773.58;5308058;55;20185;-80
2021/09/25 16:51:41;;;;;;;;;;;;;;;18.46;87.12;100776.61;5308094;56;20221;-80
2021/09/25 16:56:46;;;;;;;;;;;;;;;18.41;87.26;100778.94;5308872;56;20222;-78
2021/09/25 17:01:51;;;;;;;;;;;;;;;18.44;87.36;100782.13;5309342;56;20246;-79
2021/09/25 17:06:56;;;;;;;;;;;;;;;18.45;87.27;100782.47;5264880;56;20174;-78
2021/09/25 17:12:01;;;;;;;;;;;;;;;18.42;87.31;100786.81;5170139;57;20452;-79
2021/09/25 17:17:06;;;;;;;;;;;;;;;18.39;87.88;100803.70;5146297;57;20612;-79
2021/09/25 17:22:13;;;;;;;;;;;;;;;18.34;87.91;100810.87;5145725;57;20196;-79
2021/09/25 17:27:18;;;;;;;;;;;;;;;18.32;88.06;100814.23;5144324;57;20180;-76
2021/09/25 17:32:23;;;;;;;;;;;;;;;18.30;88.51;100818.07;5144376;57;20444;-77
2021/09/25 17:37:27;;;;;;;;;;;;;;;18.24;88.47;100820.38;5144487;57;20180;-82
2021/09/25 17:42:33;;;;;;;;;;;;;;;18.20;88.64;100829.73;5145009;57;20543;-87
2021/09/25 17:47:38;;;;;;;;;;;;;;;18.18;88.80;100830.38;5147539;57;20254;-91
2021/09/25 17:52:45;;;;;;;;;;;;;;;18.14;89.25;100825.53;5147865;57;20180;-87
2021/09/25 17:57:49;;;;;;;;;;;;;;;18.11;89.39;100834.72;5147989;57;20894;-87
2021/09/25 18:02:54;;;;;;;;;;;;;;;18.09;89.45;100839.39;5148000;57;20184;-87
2021/09/25 18:07:59;;;;;;;;;;;;;;;18.06;89.50;100840.20;5166650;57;20188;-88
2021/09/25 18:13:06;;;;;;;;;;;;;;;18.04;89.54;100837.67;5185896;57;20417;-86
2021/09/25 18:18:10;;;;;;;;;;;;;;;18.04;89.75;100845.70;5187062;57;20217;-87
2021/09/25 18:23:17;;;;;;;;;;;;;;;18.06;89.63;100865.13;5186978;57;20211;-89
2021/09/25 18:28:22;;;;;;;;;;;;;;;18.06;89.53;100857.59;5180163;57;20207;-87
2021/09/25 18:33:27;;;;;;;;;;;;;;;18.03;89.67;100864.59;5186747;57;20187;-83
2021/09/25 18:38:32;;;;;;;;;;;;;;;18.02;89.76;100867.80;5186163;57;20212;-84
2021/09/25 18:43:37;;;;;;;;;;;;;;;17.99;89.79;100869.45;5186225;57;20192;-83
2021/09/25 18:48:41;;;;;;;;;;;;;;;17.98;89.91;100871.79;5186470;57;20180;-83
2021/09/25 18:53:46;;;;;;;;;;;;;;;17.96;90.17;100875.61;5186783;57;20424;-85
2021/09/25 18:58:51;;;;;;;;;;;;;;;17.97;90.51;100879.97;5186596;57;20191;-86
2021/09/25 19:03:56;;;;;;;;;;;;;;;17.96;90.38;100883.14;5186299;57;20175;-85
2021/09/25 19:09:05;;;;;;;;;;;;;;;17.93;90.59;100885.63;5200836;56;20211;-86
2021/09/25 19:14:10;;;;;;;;;;;;;;;17.91;90.53;100887.63;5271017;56;20172;-83
2021/09/25 19:19:15;;;;;;;;;;;;;;;17.88;90.58;100887.93;5307595;56;20179;-85
2021/09/25 19:24:20;;;;;;;;;;;;;;;17.89;90.66;100892.29;5307066;56;20413;-89
2021/09/25 19:29:26;;;;;;;;;;;;;;;17.88;90.68;100901.31;5307658;56;20366;-90
2021/09/25 19:34:31;;;;;;;;;;;;;;;17.89;90.69;100906.16;5306597;56;20206;-79
2021/09/25 19:39:37;;;;;;;;;;;;;;;17.85;90.76;100913.69;5306705;56;20448;-80
2021/09/25 19:44:43;;;;;;;;;;;;;;;17.86;90.87;100916.71;5306733;56;20214;-83
2021/09/25 19:49:47;;;;;;;;;;;;;;;17.86;90.90;100922.06;5306662;56;20175;-81
2021/09/25 19:54:52;;;;;;;;;;;;;;;17.85;90.84;100924.89;5306773;56;20272;-82
2021/09/25 19:59:57;;;;;;;;;;;;;;;17.83;90.98;100925.54;5306256;56;20187;-81
2021/09/25 20:05:04;;;;;;;;;;;;;;;17.84;91.12;100932.58;5305626;56;20633;-80
2021/09/25 20:10:11;;;;;;;;;;;;;;;17.81;91.23;100929.70;5272917;55;20164;-78
2021/09/25 20:15:16;;;;;;;;;;;;;;;17.76;91.33;100927.98;5217733;55;20198;-83
2021/09/25 20:20:23;;;;;;;;;;;;;;;17.71;91.62;100934.32;5342356;55;20470;-83
2021/09/25 20:25:28;;;;;;;;;;;;;;;17.69;91.91;100934.97;5315571;55;20277;-82
2021/09/25 20:30:33;;;;;;;;;;;;;;;17.71;91.94;100941.50;5314072;55;20166;-82
2021/09/25 20:35:39;;;;;;;;;;;;;;;17.71;91.95;100941.01;5340821;55;20240;-81
2021/09/25 20:40:44;;;;;;;;;;;;;;;17.72;91.85;100945.34;5340087;55;20590;-85
2021/09/25 20:45:50;;;;;;;;;;;;;;;17.71;91.89;100943.68;5341165;55;20539;-82
2021/09/25 20:50:55;;;;;;;;;;;;;;;17.73;91.93;100946.17;5341745;55;20172;-82
2021/09/25 20:56:00;;;;;;;;;;;;;;;17.68;91.99;100949.83;5341502;55;20183;-80
2021/09/25 21:01:06;;;;;;;;;;;;;;;17.71;92.17;100954.88;5341391;55;20187;-83
2021/09/25 21:06:12;;;;;;;;;;;;;;;17.71;92.03;100956.22;5341423;55;20183;-75
2021/09/25 21:11:17;;;;;;;;;;;;;;;17.74;92.11;100957.22;5334824;55;20208;-80
2021/09/25 21:16:22;;;;;;;;;;;;;;;17.75;92.03;100960.24;5308225;55;20541;-82
2021/09/25 21:21:28;;;;;;;;;;;;;;;17.78;92.08;100962.12;5307947;56;20620;-74
2021/09/25 21:26:34;;;;;;;;;;;;;;;17.77;92.09;100964.45;5307886;55;20623;-80
2021/09/25 21:31:39;;;;;;;;;;;;;;;17.75;92.11;100961.58;5309690;56;20150;-77
2021/09/25 21:36:44;;;;;;;;;;;;;;;17.70;92.07;100966.08;5340335;55;20150;-81
2021/09/25 21:41:49;;;;;;;;;;;;;;;17.70;92.10;100970.09;5318654;56;20485;-79
2021/09/25 21:46:54;;;;;;;;;;;;;;;17.73;92.28;100972.43;5318640;56;20154;-80
2021/09/25 21:51:59;;;;;;;;;;;;;;;17.76;92.17;100980.16;5318536;56;20185;-79
2021/09/25 21:57:04;;;;;;;;;;;;;;;17.72;91.96;100978.78;5318644;56;20530;-77
2021/09/25 22:02:11;;;;;;;;;;;;;;;17.73;92.23;100985.81;5318523;56;20818;-78
2021/09/25 22:07:16;;;;;;;;;;;;;;;17.78;92.23;100997.40;5318676;56;20153;-85
2021/09/25 22:12:20;;;;;;;;;;;;;;;17.80;92.16;100992.24;5236535;56;20147;-82
2021/09/25 22:17:25;;;;;;;;;;;;;;;17.78;92.11;101001.41;5291748;55;20150;-81
2021/09/25 22:22:30;;;;;;;;;;;;;;;17.73;92.18;101004.54;5291328;55;20174;-79
2021/09/25 22:27:40;;;;;;;;;;;;;;;17.68;92.20;101006.85;5302896;55;20178;-77
2021/09/25 22:32:51;;;;;;;;;;;;;;;17.64;92.38;101011.31;5270335;56;20139;-80
2021/09/25 22:37:55;;;;;;;;;;;;;;;17.67;92.57;101017.70;5270687;56;20152;-82
2021/09/25 22:43:03;;;;;;;;;;;;;;;17.70;92.33;101021.41;5270851;56;20155;-83
2021/09/25 22:48:08;;;;;;;;;;;;;;;17.75;92.65;101021.28;5270163;56;20139;-81
2021/09/25 22:53:14;;;;;;;;;;;;;;;17.86;92.74;101022.41;5270392;56;20407;-78
2021/09/25 22:58:19;;;;;;;;;;;;;;;17.91;92.30;101024.60;5270336;56;20142;-76
2021/09/25 23:03:24;;;;;;;;;;;;;;;17.90;91.96;101026.44;5270282;56;20135;-79
2021/09/25 23:08:29;;;;;;;;;;;;;;;17.86;91.79;101024.24;5270114;56;20368;-79
2021/09/25 23:13:34;;;;;;;;;;;;;;;17.85;92.04;101023.41;5304778;56;20486;-78
2021/09/25 23:18:39;;;;;;;;;;;;;;;17.81;91.93;101029.20;5305488;55;20151;-80
2021/09/25 23:23:44;;;;;;;;;;;;;;;17.71;91.81;101037.31;5305431;56;20150;-77
2021/09/25 23:28:49;;;;;;;;;;;;;;;17.63;92.23;101034.52;5305299;55;20149;-77
2021/09/25 23:33:53;;;;;;;;;;;;;;;17.64;92.51;101036.73;5305329;56;20174;-81
2021/09/25 23:38:58;;;;;;;;;;;;;;;17.63;92.20;101042.54;5305402;56;20149;-78
2021/09/25 23:44:04;;;;;;;;;;;;;;;17.61;92.19;101046.35;5305235;56;20550;-84
2021/09/25 23:49:08;;;;;;;;;;;;;;;17.57;91.98;101040.45;5305454;56;20146;-80
2021/09/25 23:54:13;;;;;;;;;;;;;;;17.53;92.14;101043.95;5305227;56;20154;-80
2021/09/25 23:59:18;;;;;;;;;;;;;;;17.54;92.40;101048.31;5305190;55;20186;-78
